createdAt,value
2022-09-07T11:47:55.661Z,25.00
2022-09-07T11:48:55.630Z,25.00
2022-09-07T11:49:59.125Z,25.00
2022-09-07T11:50:55.581Z,25.00
2022-09-07T11:51:55.554Z,25.00
2022-09-07T11:52:55.663Z,0.00
2022-09-07T11:53:55.613Z,0.00
2022-09-07T11:54:55.604Z,0.00
2022-09-07T11:55:55.558Z,0.00
2022-09-07T11:56:55.515Z,0.00
2022-09-07T11:57:55.982Z,0.00
2022-09-07T11:58:55.431Z,0.00
2022-09-07T11:59:55.437Z,0.00
2022-09-07T12:00:55.366Z,25.00
2022-09-07T12:01:55.337Z,21.33
2022-09-07T12:03:00.008Z,36.87
2022-09-07T12:03:55.437Z,41.00
2022-09-07T12:04:56.489Z,58.77
2022-09-07T12:05:55.409Z,70.83
2022-09-07T12:06:55.363Z,57.82
2022-09-07T12:07:55.323Z,53.71
2022-09-07T12:08:55.284Z,31.34
2022-09-07T12:22:30.243Z,25.00
2022-09-07T12:23:30.182Z,25.00
2022-09-07T12:52:27.067Z,25.00
2022-09-07T12:53:27.057Z,25.00
2022-09-07T12:54:27.086Z,25.00
2022-09-07T12:55:29.204Z,25.00
2022-09-07T12:56:27.084Z,25.00
2022-09-07T12:57:30.286Z,176.60
2022-09-07T12:58:27.215Z,184.40
2022-09-07T12:59:27.115Z,223.58
2022-09-07T13:00:27.148Z,286.11
2022-09-07T13:01:27.332Z,374.68
2022-09-07T13:02:27.268Z,489.18
2022-09-07T13:04:27.224Z,262.28
2022-09-07T13:05:27.229Z,265.78
2022-09-07T13:07:27.285Z,263.38
2022-09-07T13:08:27.261Z,270.10
2022-09-07T13:09:27.275Z,283.35
2022-09-07T13:10:27.280Z,304.96
2022-09-07T13:11:27.297Z,336.77
2022-09-07T13:14:27.494Z,339.37
2022-09-07T13:15:27.515Z,341.94
2022-09-07T13:16:27.874Z,347.42
2022-09-07T13:17:27.527Z,357.44
2022-09-07T13:18:27.572Z,372.98
2022-09-07T13:19:27.550Z,371.11
2022-09-07T13:20:28.205Z,366.51
2022-09-07T13:21:28.778Z,362.13
2022-09-07T13:22:27.615Z,357.52
2022-09-07T13:23:27.798Z,352.84
2022-09-07T13:25:28.019Z,348.41
2022-09-07T13:26:27.625Z,348.97
2022-09-07T13:27:27.616Z,350.68
2022-09-07T13:28:27.640Z,353.86
2022-09-07T13:29:27.665Z,358.68
2022-09-07T13:30:27.702Z,353.60
2022-09-07T13:31:27.828Z,347.98
2022-09-07T13:33:27.892Z,342.28
2022-09-07T13:34:27.923Z,342.68
2022-09-07T13:35:27.958Z,343.81
2022-09-07T13:36:27.943Z,346.09
2022-09-07T13:37:27.973Z,349.69
2022-09-07T13:38:27.982Z,344.69
2022-09-07T13:39:28.152Z,339.64
2022-09-07T13:40:28.197Z,334.90
2022-09-07T13:41:28.312Z,330.22
2022-09-07T13:42:28.458Z,325.52
2022-09-07T13:43:28.681Z,320.85
2022-09-07T13:44:28.886Z,302.63
2022-09-07T13:45:28.888Z,301.45
2022-09-07T13:46:28.921Z,299.52
2022-09-07T13:47:28.885Z,296.15
2022-09-07T13:48:28.884Z,292.01
2022-09-07T13:49:28.891Z,287.11
2022-09-07T13:50:28.894Z,282.31
2022-09-07T13:51:28.899Z,277.60
2022-09-07T13:52:28.910Z,273.16
2022-09-07T13:53:28.976Z,269.18
2022-09-07T13:54:28.908Z,264.85
2022-09-07T13:55:28.979Z,261.06
